createdAt,value
2018-12-08T00:00:26.844Z,26.93
2018-12-08T00:02:56.295Z,25.03
2018-12-08T00:05:36.161Z,22.87
2018-12-08T00:08:05.477Z,26.40
2018-12-08T00:10:34.629Z,26.80
2018-12-08T00:13:03.841Z,23.10
2018-12-08T00:15:33.991Z,29.40
2018-12-08T00:18:03.246Z,22.83
2018-12-08T00:20:32.345Z,25.90
2018-12-08T00:23:02.862Z,39.77
2018-12-08T00:25:32.412Z,22.17
2018-12-08T00:28:01.733Z,26.67
2018-12-08T00:30:41.851Z,33.40
2018-12-08T00:33:11.921Z,37.03
2018-12-08T00:35:41.065Z,34.77
2018-12-08T00:38:10.233Z,21.20
2018-12-08T00:40:39.409Z,22.77
2018-12-08T00:43:09.061Z,27.00
2018-12-08T00:45:38.158Z,30.17
2018-12-08T00:48:07.902Z,33.50
2018-12-08T00:50:37.189Z,21.03
2018-12-08T00:53:06.436Z,32.87
2018-12-08T00:55:36.267Z,25.33
2018-12-08T00:58:05.921Z,26.53
2018-12-08T01:00:35.149Z,28.93
2018-12-08T01:03:04.555Z,28.23
2018-12-08T01:05:33.721Z,24.23
2018-12-08T01:08:02.891Z,23.47
2018-12-08T01:10:32.015Z,25.53
2018-12-08T01:13:01.152Z,24.33
2018-12-08T01:15:30.319Z,27.90
2018-12-08T01:18:00.419Z,23.83
2018-12-08T01:20:29.559Z,29.33
2018-12-08T01:22:58.730Z,27.57
2018-12-08T01:25:27.859Z,29.40
2018-12-08T01:27:56.956Z,21.03
2018-12-08T01:30:26.667Z,22.03
2018-12-08T01:32:56.233Z,31.00
2018-12-08T01:35:26.276Z,22.07
2018-12-08T01:38:01.825Z,28.27
2018-12-08T01:40:32.800Z,18.43
2018-12-08T01:43:03.735Z,19.70
2018-12-08T01:45:32.904Z,28.13
2018-12-08T01:48:02.108Z,24.90
2018-12-08T01:50:31.928Z,23.07
2018-12-08T01:53:03.346Z,22.17
2018-12-08T01:55:32.433Z,22.80
2018-12-08T01:58:01.535Z,26.30
2018-12-08T02:00:31.864Z,27.43
2018-12-08T02:03:01.791Z,33.90
2018-12-08T02:05:33.655Z,28.93
2018-12-08T02:08:04.067Z,33.83
2018-12-08T02:10:37.055Z,18.53
2018-12-08T02:13:06.239Z,23.13
2018-12-08T02:15:35.487Z,23.27
2018-12-08T02:18:04.660Z,24.20
2018-12-08T02:20:35.814Z,18.93
2018-12-08T02:23:04.938Z,17.77
2018-12-08T02:25:34.125Z,33.53
2018-12-08T02:28:03.306Z,30.47
2018-12-08T02:30:32.413Z,21.40
2018-12-08T02:33:01.676Z,34.73
2018-12-08T02:35:30.867Z,28.97
2018-12-08T02:38:00.060Z,29.47
2018-12-08T02:40:29.264Z,27.27
2018-12-08T02:42:58.556Z,25.93
2018-12-08T02:45:27.705Z,22.70
2018-12-08T02:47:56.850Z,45.00
2018-12-08T02:50:25.981Z,33.27
2018-12-08T02:52:55.092Z,29.97
2018-12-08T02:55:24.371Z,35.20
2018-12-08T02:57:53.472Z,35.67
2018-12-08T03:00:22.645Z,29.80
2018-12-08T03:02:51.833Z,26.57
2018-12-08T03:05:21.160Z,21.03
2018-12-08T03:07:50.370Z,19.37
2018-12-08T03:10:19.953Z,24.87
2018-12-08T03:12:49.356Z,22.23
2018-12-08T03:15:18.790Z,23.97
2018-12-08T03:17:47.957Z,27.23
2018-12-08T03:20:17.365Z,27.70
2018-12-08T03:22:46.462Z,29.23
2018-12-08T03:25:15.569Z,30.47
2018-12-08T03:27:44.748Z,24.90
2018-12-08T03:30:14.963Z,32.30
2018-12-08T03:32:44.099Z,27.80
2018-12-08T03:35:13.165Z,31.10
2018-12-08T03:37:42.335Z,26.93
2018-12-08T03:40:11.481Z,38.70
2018-12-08T03:42:40.824Z,35.60
2018-12-08T03:45:11.017Z,39.47
2018-12-08T03:47:40.963Z,26.03
2018-12-08T03:50:11.771Z,33.13
2018-12-08T03:55:15.273Z,27.83
2018-12-08T03:57:45.163Z,30.47
2018-12-08T04:00:15.275Z,34.03
2018-12-08T04:02:44.365Z,30.37
2018-12-08T04:05:13.501Z,30.90
2018-12-08T04:07:42.646Z,33.97
2018-12-08T04:10:11.864Z,35.57
2018-12-08T04:12:41.077Z,33.87
2018-12-08T04:15:10.283Z,44.00
2018-12-08T04:17:40.312Z,40.40
2018-12-08T04:20:11.353Z,25.37
2018-12-08T04:22:42.178Z,31.63
2018-12-08T04:40:30.952Z,33.93
2018-12-08T04:43:00.151Z,39.53
2018-12-08T04:45:29.407Z,36.57
2018-12-08T04:47:58.558Z,33.00
2018-12-08T04:50:27.611Z,38.57
2018-12-08T04:52:56.701Z,35.50
2018-12-08T04:55:25.924Z,32.30
2018-12-08T04:57:55.127Z,37.47
2018-12-08T05:00:24.397Z,37.43
2018-12-08T05:02:53.492Z,35.63
2018-12-08T05:05:22.640Z,39.03
2018-12-08T05:07:51.822Z,38.93
2018-12-08T05:10:21.132Z,33.77
2018-12-08T05:12:50.313Z,33.83
2018-12-08T05:15:19.403Z,41.17
2018-12-08T05:17:51.567Z,41.53
2018-12-08T05:20:20.777Z,36.77
2018-12-08T05:22:54.025Z,32.63
2018-12-08T05:25:23.188Z,36.13
2018-12-08T05:27:52.420Z,26.93
2018-12-08T05:30:21.601Z,38.50
2018-12-08T05:32:50.712Z,31.00
2018-12-08T05:35:19.913Z,39.83
2018-12-08T05:37:49.045Z,36.00
2018-12-08T05:40:18.126Z,38.23
2018-12-08T05:42:47.218Z,48.00
2018-12-08T05:45:16.362Z,33.90
2018-12-08T05:47:45.687Z,26.90
2018-12-08T05:50:14.868Z,35.77
2018-12-08T05:52:44.009Z,34.03
2018-12-08T05:55:13.154Z,34.90
2018-12-08T05:57:42.320Z,32.90
2018-12-08T06:00:11.624Z,42.30
2018-12-08T06:02:40.724Z,32.63
2018-12-08T06:05:10.413Z,28.67
2018-12-08T06:07:40.805Z,32.10
2018-12-08T06:10:09.950Z,28.67
2018-12-08T06:12:39.148Z,31.03
2018-12-08T06:15:08.312Z,32.37
2018-12-08T06:17:37.558Z,20.87
2018-12-08T06:20:07.521Z,29.90
2018-12-08T06:22:36.632Z,27.23
2018-12-08T06:25:07.293Z,27.50
2018-12-08T06:28:41.309Z,24.50
2018-12-08T06:31:10.451Z,39.07
2018-12-08T06:33:39.635Z,31.63
2018-12-08T06:36:08.811Z,28.73
2018-12-08T06:38:37.885Z,27.27
2018-12-08T06:41:07.009Z,33.13
2018-12-08T06:43:39.824Z,35.10
2018-12-08T06:46:08.931Z,29.60
2018-12-08T06:48:37.980Z,23.57
2018-12-08T06:51:07.145Z,32.73
2018-12-08T06:53:36.375Z,34.23
2018-12-08T06:56:06.908Z,35.17
2018-12-08T06:58:35.998Z,29.50
2018-12-08T07:01:05.150Z,34.60
2018-12-08T07:03:34.297Z,37.53
2018-12-08T07:06:03.497Z,32.50
2018-12-08T07:08:32.555Z,23.90
2018-12-08T07:11:01.680Z,21.00
2018-12-08T07:13:30.981Z,36.87
2018-12-08T07:16:00.182Z,27.60
2018-12-08T07:18:29.323Z,28.90
2018-12-08T07:20:58.936Z,23.20
2018-12-08T07:23:28.177Z,33.33
2018-12-08T07:25:57.370Z,26.03
2018-12-08T07:28:26.529Z,33.73
2018-12-08T07:30:55.666Z,24.77
2018-12-08T07:33:24.811Z,23.80
2018-12-08T07:35:53.904Z,26.00
2018-12-08T07:38:23.027Z,27.33
2018-12-08T07:40:52.168Z,28.90
2018-12-08T07:43:21.328Z,27.73
2018-12-08T07:45:50.486Z,25.97
2018-12-08T07:48:19.686Z,33.63
2018-12-08T07:50:48.852Z,32.93
2018-12-08T07:53:18.022Z,30.30
2018-12-08T07:55:47.205Z,37.07
2018-12-08T07:58:16.520Z,24.63
2018-12-08T08:00:45.640Z,29.00
2018-12-08T08:03:14.892Z,35.77
2018-12-08T08:05:44.087Z,35.23
2018-12-08T08:08:13.394Z,33.60
2018-12-08T08:10:42.693Z,27.67
2018-12-08T08:13:11.902Z,40.20
2018-12-08T08:15:41.087Z,27.93
2018-12-08T08:18:10.441Z,29.30
2018-12-08T08:20:42.571Z,36.63
2018-12-08T08:23:12.143Z,36.27
2018-12-08T08:25:41.249Z,34.70
2018-12-08T08:28:11.535Z,29.97
2018-12-08T08:30:40.655Z,35.07
2018-12-08T08:33:09.722Z,24.37
2018-12-08T08:35:39.807Z,24.27
2018-12-08T08:38:10.730Z,23.80
2018-12-08T08:40:39.785Z,21.23
2018-12-08T08:43:09.008Z,34.70
2018-12-08T08:45:38.020Z,24.33
2018-12-08T08:48:07.249Z,22.30
2018-12-08T08:50:36.372Z,23.17
2018-12-08T08:53:07.287Z,27.60
2018-12-08T08:55:36.923Z,24.40
2018-12-08T08:58:06.041Z,28.80
2018-12-08T09:00:35.169Z,19.23
2018-12-08T09:03:04.214Z,20.43
2018-12-08T09:05:33.453Z,18.63
2018-12-08T09:08:07.046Z,14.30
2018-12-08T09:10:36.195Z,19.13
2018-12-08T09:13:05.304Z,17.27
2018-12-08T09:15:34.467Z,14.20
2018-12-08T09:18:03.757Z,23.13
2018-12-08T09:20:33.678Z,17.20
2018-12-08T09:23:02.909Z,10.83
2018-12-08T09:25:32.592Z,16.27
2018-12-08T09:28:01.857Z,14.27
2018-12-08T09:30:31.505Z,15.00
2018-12-08T09:33:00.757Z,11.53
2018-12-08T09:35:30.135Z,13.00
2018-12-08T09:37:59.470Z,16.83
2018-12-08T09:40:29.494Z,17.43
2018-12-08T09:42:58.629Z,12.43
2018-12-08T09:45:28.020Z,18.10
2018-12-08T09:47:57.795Z,20.10
2018-12-08T09:50:27.918Z,20.60
2018-12-08T09:53:20.801Z,15.30
2018-12-08T09:56:01.555Z,15.00
2018-12-08T09:58:39.086Z,20.30
2018-12-08T10:01:24.277Z,12.40
2018-12-08T10:03:53.613Z,14.50
2018-12-08T10:06:23.619Z,4.80
2018-12-08T10:08:52.831Z,2.30
2018-12-08T10:11:22.035Z,9.53
2018-12-08T10:13:51.891Z,5.30
2018-12-08T10:16:21.403Z,9.90
2018-12-08T10:18:50.872Z,7.83
2018-12-08T10:21:20.971Z,7.73
2018-12-08T10:23:50.694Z,12.47
2018-12-08T10:26:21.579Z,14.27
2018-12-08T10:28:50.971Z,12.47
2018-12-08T10:31:20.474Z,11.67
2018-12-08T10:33:49.740Z,12.40
2018-12-08T10:36:20.761Z,13.97
2018-12-08T10:38:50.791Z,12.70
2018-12-08T10:41:19.968Z,8.43
2018-12-08T10:43:49.473Z,12.17
2018-12-08T10:46:19.617Z,8.97
2018-12-08T10:48:50.139Z,10.60
2018-12-08T10:51:19.334Z,11.63
2018-12-08T10:53:49.248Z,12.23
2018-12-08T10:56:18.585Z,9.57
2018-12-08T10:58:48.662Z,10.10
2018-12-08T11:01:20.393Z,5.93
2018-12-08T11:03:52.759Z,7.17
2018-12-08T11:06:24.579Z,4.70
2018-12-08T11:08:55.518Z,5.50
2018-12-08T11:11:24.733Z,6.40
2018-12-08T11:13:53.981Z,3.63
2018-12-08T11:16:23.332Z,7.07
2018-12-08T11:18:54.038Z,6.53
2018-12-08T11:21:23.394Z,14.53
2018-12-08T11:23:52.591Z,8.60
2018-12-08T11:26:21.838Z,7.10
2018-12-08T11:28:51.793Z,5.00
2018-12-08T11:31:21.216Z,5.23
2018-12-08T11:33:51.366Z,8.30
2018-12-08T11:36:20.585Z,5.93
2018-12-08T11:38:54.292Z,15.57
2018-12-08T11:41:23.335Z,16.50
2018-12-08T11:43:52.552Z,16.70
2018-12-08T11:46:21.745Z,19.23
2018-12-08T11:48:53.110Z,14.57
2018-12-08T11:51:22.945Z,11.17
2018-12-08T11:53:52.051Z,15.00
2018-12-08T11:56:22.351Z,15.87
2018-12-08T11:58:51.632Z,11.37
2018-12-08T12:01:21.020Z,16.83
2018-12-08T12:03:50.967Z,11.10
2018-12-08T12:06:20.961Z,19.37
2018-12-08T12:08:53.365Z,20.43
2018-12-08T12:11:22.656Z,22.67
2018-12-08T12:13:52.210Z,20.77
2018-12-08T12:16:21.597Z,26.13
2018-12-08T12:18:50.892Z,18.93
2018-12-08T12:21:20.064Z,23.70
2018-12-08T12:23:49.222Z,25.07
2018-12-08T12:26:18.448Z,13.93
2018-12-08T12:28:47.636Z,20.87
2018-12-08T12:31:16.889Z,14.00
2018-12-08T12:33:47.378Z,21.73
2018-12-08T12:36:16.650Z,19.33
2018-12-08T12:38:46.050Z,26.57
2018-12-08T12:41:15.320Z,25.70
2018-12-08T12:43:45.021Z,28.97
2018-12-08T12:46:14.535Z,18.83
2018-12-08T12:48:43.901Z,17.90
2018-12-08T12:51:13.139Z,16.03
2018-12-08T12:53:43.154Z,22.33
2018-12-08T12:56:13.223Z,26.37
2018-12-08T12:58:42.642Z,21.67
2018-12-08T13:01:11.927Z,21.13
2018-12-08T13:03:41.013Z,24.37
2018-12-08T13:06:10.173Z,16.47
2018-12-08T13:08:39.333Z,22.20
2018-12-08T13:11:09.292Z,25.07
2018-12-08T13:13:38.470Z,24.60
2018-12-08T13:16:07.750Z,33.97
2018-12-08T13:18:38.316Z,26.70
2018-12-08T13:21:07.745Z,30.87
2018-12-08T13:23:37.940Z,30.63
2018-12-08T13:26:10.063Z,25.97
2018-12-08T13:28:39.412Z,30.37
2018-12-08T13:31:13.025Z,32.87
2018-12-08T13:33:42.228Z,33.93
2018-12-08T13:36:12.883Z,43.00
2018-12-08T13:38:42.265Z,39.17
2018-12-08T13:41:11.587Z,41.47
2018-12-08T13:43:40.865Z,35.03
2018-12-08T13:46:10.657Z,30.60
2018-12-08T13:48:40.767Z,40.23
2018-12-08T13:51:10.030Z,41.60
2018-12-08T13:53:39.231Z,32.40
2018-12-08T13:56:08.437Z,28.30
2018-12-08T13:58:37.948Z,34.60
2018-12-08T14:01:09.236Z,30.63
2018-12-08T14:03:38.909Z,26.90
2018-12-08T14:06:09.675Z,25.07
2018-12-08T14:08:39.628Z,37.47
2018-12-08T14:11:08.902Z,30.00
2018-12-08T14:13:38.194Z,49.97
2018-12-08T14:16:07.599Z,40.37
2018-12-08T14:18:37.001Z,44.03
2018-12-08T14:21:07.107Z,43.93
2018-12-08T14:23:36.434Z,43.60
2018-12-08T14:26:05.732Z,61.80
2018-12-08T14:28:36.123Z,44.60
2018-12-08T14:31:07.153Z,46.93
2018-12-08T14:33:37.766Z,54.40
2018-12-08T14:36:07.234Z,41.80
2018-12-08T14:38:36.351Z,50.90
2018-12-08T14:41:06.603Z,45.23
2018-12-08T14:43:36.872Z,54.03
2018-12-08T14:46:06.075Z,49.17
2018-12-08T14:48:35.337Z,50.00
2018-12-08T14:51:04.791Z,45.70
2018-12-08T14:53:35.217Z,52.93
2018-12-08T14:56:04.886Z,58.97
2018-12-08T14:58:34.131Z,43.63
2018-12-08T15:01:03.438Z,38.13
2018-12-08T15:03:32.740Z,51.30
2018-12-08T15:06:02.152Z,44.20
2018-12-08T15:08:32.569Z,48.93
2018-12-08T15:11:02.416Z,53.40
2018-12-08T15:13:32.242Z,47.43
2018-12-08T15:16:02.139Z,48.93
2018-12-08T15:18:31.511Z,46.87
2018-12-08T15:21:01.640Z,53.57
2018-12-08T15:23:30.855Z,45.83
2018-12-08T15:26:00.227Z,49.03
2018-12-08T15:28:31.165Z,47.43
2018-12-08T15:31:00.874Z,50.10
2018-12-08T15:33:30.337Z,51.50
2018-12-08T15:35:59.473Z,50.47
2018-12-08T15:38:29.551Z,56.77
2018-12-08T15:41:00.440Z,53.13
2018-12-08T15:43:29.673Z,48.60
2018-12-08T15:45:58.944Z,61.17
2018-12-08T15:48:28.142Z,59.47
2018-12-08T15:50:57.529Z,50.10
2018-12-08T15:53:28.402Z,57.80
2018-12-08T15:55:57.473Z,68.77
2018-12-08T15:58:26.619Z,51.93
2018-12-08T16:00:56.722Z,36.97
2018-12-08T16:03:26.502Z,35.80
2018-12-08T16:05:55.595Z,33.40
2018-12-08T16:08:25.726Z,44.90
2018-12-08T16:10:55.740Z,32.93
2018-12-08T16:13:24.841Z,33.70
2018-12-08T16:15:54.049Z,36.33
2018-12-08T16:18:23.236Z,49.70
2018-12-08T16:20:53.249Z,45.20
2018-12-08T16:23:22.646Z,51.80
2018-12-08T16:25:51.782Z,65.50
2018-12-08T16:28:21.775Z,69.50
2018-12-08T16:30:50.924Z,51.50
2018-12-08T16:33:20.874Z,45.53
2018-12-08T16:35:51.139Z,50.43
2018-12-08T16:38:21.800Z,55.20
2018-12-08T16:40:51.338Z,48.97
2018-12-08T16:43:20.972Z,51.50
2018-12-08T16:45:51.178Z,53.17
2018-12-08T16:48:20.386Z,41.63
2018-12-08T16:50:49.668Z,48.57
2018-12-08T16:53:19.003Z,58.07
2018-12-08T16:55:48.092Z,59.77
2018-12-08T16:58:18.525Z,54.70
2018-12-08T17:00:48.197Z,55.70
2018-12-08T17:03:18.554Z,43.50
2018-12-08T17:05:47.839Z,59.93
2018-12-08T17:08:19.901Z,47.60
2018-12-08T17:10:49.081Z,43.07
2018-12-08T17:13:18.990Z,56.63
2018-12-08T17:15:48.129Z,41.70
2018-12-08T17:18:17.443Z,44.13
2018-12-08T17:20:49.612Z,39.30
2018-12-08T17:23:18.856Z,46.47
2018-12-08T17:25:48.144Z,45.87
2018-12-08T17:28:17.557Z,51.20
2018-12-08T17:30:47.402Z,36.83
2018-12-08T17:33:16.705Z,44.73
2018-12-08T17:35:46.946Z,49.97
2018-12-08T17:38:16.086Z,32.57
2018-12-08T17:40:46.347Z,38.47
2018-12-08T17:43:16.241Z,34.27
2018-12-08T17:45:45.317Z,27.40
2018-12-08T17:48:14.554Z,28.67
2018-12-08T17:50:44.128Z,29.17
2018-12-08T17:53:13.334Z,30.33
2018-12-08T17:55:42.522Z,24.20
2018-12-08T17:58:11.847Z,23.77
2018-12-08T18:00:41.103Z,28.50
2018-12-08T18:03:10.374Z,29.90
2018-12-08T18:05:39.495Z,29.63
2018-12-08T18:08:09.311Z,30.50
2018-12-08T18:10:39.448Z,26.63
2018-12-08T18:13:12.175Z,38.33
2018-12-08T18:15:41.409Z,39.10
2018-12-08T18:18:10.475Z,49.57
2018-12-08T18:20:39.566Z,41.03
2018-12-08T18:23:10.006Z,43.77
2018-12-08T18:25:39.294Z,33.03
2018-12-08T18:28:09.059Z,34.33
2018-12-08T18:30:38.267Z,36.33
2018-12-08T18:33:07.474Z,37.07
2018-12-08T18:38:12.642Z,34.43
2018-12-08T18:40:41.707Z,25.50
2018-12-08T18:43:11.674Z,38.90
2018-12-08T18:45:41.102Z,40.83
2018-12-08T18:48:11.201Z,31.87
2018-12-08T18:50:41.113Z,37.53
2018-12-08T18:53:10.288Z,37.73
2018-12-08T18:55:39.311Z,27.53
2018-12-08T18:58:08.419Z,41.83
2018-12-08T19:00:37.601Z,40.00
2018-12-08T19:03:07.690Z,38.10
2018-12-08T19:05:37.160Z,37.27
2018-12-08T19:08:06.485Z,29.83
2018-12-08T19:10:35.574Z,38.07
2018-12-08T19:13:05.079Z,42.90
2018-12-08T19:15:34.174Z,43.37
2018-12-08T19:18:03.570Z,36.47
2018-12-08T19:20:32.641Z,34.63
2018-12-08T19:23:02.441Z,32.10
2018-12-08T19:25:31.780Z,38.37
2018-12-08T19:28:00.948Z,33.90
2018-12-08T19:30:29.966Z,35.50
2018-12-08T19:32:59.229Z,35.10
2018-12-08T19:35:28.333Z,33.50
2018-12-08T19:37:57.407Z,30.70
2018-12-08T19:40:26.689Z,34.80
2018-12-08T19:42:55.873Z,34.53
2018-12-08T19:45:25.289Z,47.43
2018-12-08T19:47:54.861Z,32.37
2018-12-08T19:50:24.367Z,28.70
2018-12-08T19:52:53.718Z,31.17
2018-12-08T19:55:22.895Z,33.53
2018-12-08T19:57:52.176Z,36.70
2018-12-08T20:00:21.897Z,36.03
2018-12-08T20:02:51.157Z,36.13
2018-12-08T20:05:20.595Z,35.53
2018-12-08T20:07:51.147Z,42.17
2018-12-08T20:12:53.662Z,37.00
2018-12-08T20:15:22.867Z,27.93
2018-12-08T20:17:52.367Z,41.57
2018-12-08T20:20:21.546Z,40.57
2018-12-08T20:22:50.889Z,39.10
2018-12-08T20:25:21.777Z,37.80
2018-12-08T20:27:51.446Z,31.20
2018-12-08T20:30:20.618Z,43.67
2018-12-08T20:32:50.057Z,37.63
2018-12-08T20:35:19.175Z,33.60
2018-12-08T20:37:48.787Z,35.07
2018-12-08T20:40:18.289Z,36.10
2018-12-08T20:42:48.304Z,62.77
2018-12-08T20:45:31.136Z,93.07
2018-12-08T20:48:01.087Z,14.30
2018-12-08T20:50:31.131Z,20.70
2018-12-08T20:53:05.576Z,27.87
2018-12-08T20:55:38.822Z,29.77
2018-12-08T20:58:09.365Z,38.17
2018-12-08T21:17:55.833Z,17.47
2018-12-08T21:20:25.403Z,28.10
2018-12-08T21:22:54.622Z,31.83
2018-12-08T21:25:24.029Z,30.93
2018-12-08T21:27:53.241Z,28.13
2018-12-08T21:30:23.422Z,26.60
2018-12-08T21:32:52.657Z,39.47
2018-12-08T21:35:22.883Z,37.57
2018-12-08T21:37:51.959Z,32.40
2018-12-08T21:40:28.824Z,42.37
2018-12-08T21:42:58.053Z,39.97
2018-12-08T21:45:28.399Z,36.73
2018-12-08T21:47:57.559Z,39.73
2018-12-08T21:50:26.871Z,38.47
2018-12-08T21:52:56.266Z,51.20
2018-12-08T21:55:25.390Z,42.93
2018-12-08T21:57:54.645Z,30.40
2018-12-08T22:00:23.911Z,37.33
2018-12-08T22:02:53.029Z,34.43
2018-12-08T22:05:22.321Z,36.17
2018-12-08T22:07:51.547Z,34.23
2018-12-08T22:10:21.421Z,36.33
2018-12-08T22:12:50.432Z,39.20
2018-12-08T22:15:19.583Z,39.07
2018-12-08T22:17:48.708Z,24.03
2018-12-08T22:20:18.005Z,44.43
2018-12-08T22:22:48.068Z,39.23
2018-12-08T22:25:17.967Z,31.57
2018-12-08T22:27:47.081Z,29.63
2018-12-08T22:30:16.212Z,26.73
2018-12-08T22:32:45.369Z,30.13
2018-12-08T22:35:15.137Z,30.53
2018-12-08T22:37:44.643Z,29.70
2018-12-08T22:40:16.423Z,29.17
2018-12-08T22:42:45.822Z,35.90
2018-12-08T22:45:15.460Z,38.10
2018-12-08T22:47:44.682Z,49.63
2018-12-08T22:50:14.068Z,44.03
2018-12-08T22:52:51.253Z,51.90
2018-12-08T22:55:20.560Z,38.70
2018-12-08T22:57:50.443Z,35.57
2018-12-08T23:00:41.394Z,33.97
2018-12-08T23:03:11.902Z,36.63
2018-12-08T23:05:41.209Z,38.00
2018-12-08T23:08:10.974Z,34.87
2018-12-08T23:10:46.297Z,32.73
2018-12-08T23:13:16.726Z,33.87
2018-12-08T23:15:46.030Z,39.60
2018-12-08T23:18:49.485Z,36.23
2018-12-08T23:24:49.837Z,41.53
2018-12-08T23:27:21.666Z,45.90
2018-12-08T23:30:11.262Z,40.83
2018-12-08T23:32:58.820Z,35.10
2018-12-08T23:35:44.827Z,29.97
2018-12-08T23:38:38.263Z,33.03
2018-12-08T23:41:26.466Z,34.00
2018-12-08T23:58:22.257Z,35.27
